Time;durP1;ratioP1;P1;durP2;ratioP2;P2;SDS_P1;SDS_P2;PMS_P1;PMS_P2;Temp;Humidity;BMP_temperature;BMP_pressure;BME280_temperature;BME280_humidity;BME280_pressure;Samples;Min_cycle;Max_cycle;Signal;HPM_P1;HPM_P2
2024/03/31 00:04:25;;;;;;;611.75;36.40;;;7.30;99.90;;;;;;20197950;29;20049;-45
2024/03/31 00:14:26;;;;;;;25.83;2.38;;;7.20;99.90;;;;;;20263617;29;20049;-41
2024/03/31 00:24:28;;;;;;;525.08;20.80;;;7.10;99.90;;;;;;20262516;29;20049;-41
2024/03/31 00:34:30;;;;;;;26.50;3.97;;;7.00;99.90;;;;;;20259898;29;20100;-45
2024/03/31 00:44:32;;;;;;;26.63;3.30;;;7.00;99.90;;;;;;20427632;29;20110;-41
2024/03/31 00:54:41;;;;;;;18.30;2.65;;;6.70;99.90;;;;;;20397445;29;20031;-43
2024/03/31 01:04:45;;;;;;;;;;;6.30;99.90;;;;;;20424757;29;20036;-43
2024/03/31 01:14:47;;;;;;;16.15;2.20;;;5.90;99.90;;;;;;20370949;29;19915;-41
2024/03/31 01:24:50;;;;;;;20.25;3.08;;;5.40;99.90;;;;;;20389208;29;20047;-43
2024/03/31 01:34:52;;;;;;;38.67;3.75;;;5.10;99.90;;;;;;20427695;29;20035;-43
2024/03/31 01:44:54;;;;;;;16.88;3.03;;;4.70;99.90;;;;;;20447596;29;20086;-41
2024/03/31 01:54:56;;;;;;;23.30;3.30;;;4.40;99.90;;;;;;20465279;29;20035;-43
2024/03/31 02:04:57;;;;;;;19.27;3.10;;;4.20;99.90;;;;;;20500556;29;20467;-45
2024/03/31 02:15:00;;;;;;;17.55;2.65;;;4.00;99.90;;;;;;20445560;29;20035;-45
2024/03/31 02:25:02;;;;;;;24.27;2.53;;;3.90;99.90;;;;;;20465079;28;20126;-43
2024/03/31 02:35:05;;;;;;;21.75;2.70;;;3.90;99.90;;;;;;20499264;29;20027;-41
2024/03/31 02:45:07;;;;;;;26.13;3.25;;;4.00;99.90;;;;;;20450617;29;20039;-42
2024/03/31 02:55:09;;;;;;;27.60;2.30;;;4.00;99.90;;;;;;20464941;29;20051;-44
2024/03/31 03:05:11;;;;;;;17.45;2.30;;;4.10;99.90;;;;;;20439382;29;20046;-43
2024/03/31 03:15:16;;;;;;;23.58;2.78;;;4.30;99.90;;;;;;20497765;29;20039;-42
2024/03/31 03:25:21;;;;;;;23.67;3.25;;;4.50;99.90;;;;;;20458584;29;20086;-41
2024/03/31 03:35:23;;;;;;;21.70;2.30;;;4.60;99.90;;;;;;20484402;28;20083;-42
2024/03/31 03:45:26;;;;;;;21.05;2.50;;;5.00;99.90;;;;;;20510787;29;20086;-43
2024/03/31 03:55:28;;;;;;;22.63;2.67;;;5.10;99.90;;;;;;20462595;29;20086;-43
2024/03/31 04:05:33;;;;;;;18.65;2.92;;;4.70;99.90;;;;;;20424181;29;20058;-43
2024/03/31 04:15:35;;;;;;;25.63;2.72;;;4.50;99.90;;;;;;20491790;29;20462;-42
2024/03/31 04:25:37;;;;;;;20.17;2.58;;;4.60;99.90;;;;;;20490941;29;20110;-43
2024/03/31 04:35:40;;;;;;;23.83;3.58;;;4.80;99.90;;;;;;20471708;29;20039;-43
2024/03/31 04:45:58;;;;;;;22.40;3.13;;;5.10;99.90;;;;;;20489148;28;20031;-43
2024/03/31 04:56:01;;;;;;;23.88;3.00;;;5.40;99.90;;;;;;20462118;29;20035;-43
2024/03/31 05:06:03;;;;;;;24.13;3.30;;;5.40;99.90;;;;;;20487986;29;20031;-44
2024/03/31 05:16:10;;;;;;;23.83;2.90;;;5.40;99.90;;;;;;20456225;29;20047;-43
2024/03/31 05:26:13;;;;;;;15.23;2.78;;;5.60;99.90;;;;;;20461679;29;20047;-43
2024/03/31 05:36:18;;;;;;;30.30;2.97;;;5.60;99.90;;;;;;20502816;29;20039;-42
2024/03/31 05:46:21;;;;;;;25.13;3.17;;;5.60;99.90;;;;;;20427450;29;20090;-48
2024/03/31 05:56:25;;;;;;;28.73;4.20;;;5.80;99.90;;;;;;20477753;28;20036;-42
2024/03/31 06:06:27;;;;;;;26.27;3.20;;;5.90;99.90;;;;;;20483716;29;20537;-41
2024/03/31 06:16:29;;;;;;;23.10;3.10;;;5.90;99.90;;;;;;20500423;29;20039;-42
2024/03/31 06:26:31;;;;;;;32.08;3.35;;;6.00;99.90;;;;;;20478353;29;20042;-44
2024/03/31 06:36:33;;;;;;;28.75;3.92;;;6.20;99.90;;;;;;20499167;29;20118;-41
2024/03/31 06:46:35;;;;;;;30.05;3.92;;;6.30;99.90;;;;;;20475350;29;20502;-44
2024/03/31 06:56:40;;;;;;;30.83;4.53;;;6.50;99.90;;;;;;20438158;29;20391;-42
2024/03/31 07:06:43;;;;;;;41.42;4.68;;;6.60;99.90;;;;;;20419558;29;20089;-40
2024/03/31 07:16:45;;;;;;;29.15;3.72;;;6.60;99.90;;;;;;20511771;28;20082;-41
2024/03/31 07:26:47;;;;;;;18.48;2.90;;;6.30;99.90;;;;;;20495136;29;20055;-42
2024/03/31 07:36:49;;;;;;;28.70;3.70;;;6.10;99.90;;;;;;20477787;29;20082;-42
2024/03/31 07:46:51;;;;;;;42.20;5.03;;;6.10;99.90;;;;;;20509188;29;20023;-42
2024/03/31 07:56:53;;;;;;;48.95;6.07;;;6.40;99.90;;;;;;20464333;29;20039;-40
2024/03/31 08:06:55;;;;;;;51.05;6.45;;;6.70;99.90;;;;;;20509295;29;20031;-40
2024/03/31 08:16:56;;;;;;;44.67;5.65;;;6.70;99.90;;;;;;20455689;29;20039;-44
2024/03/31 08:26:58;;;;;;;54.72;5.93;;;6.80;99.90;;;;;;20488822;29;20063;-40
2024/03/31 08:37:00;;;;;;;45.28;6.25;;;6.90;99.90;;;;;;20431405;29;20040;-43
2024/03/31 08:47:04;;;;;;;91.40;7.38;;;7.10;99.90;;;;;;20424679;29;20035;-41
2024/03/31 08:57:06;;;;;;;57.25;6.53;;;7.20;99.90;;;;;;20425686;29;20028;-41
2024/03/31 09:07:08;;;;;;;41.33;5.35;;;7.20;99.90;;;;;;20447282;29;20042;-44
2024/03/31 09:17:13;;;;;;;44.83;6.22;;;7.30;99.90;;;;;;20473492;29;20040;-40
2024/03/31 09:27:14;;;;;;;39.40;4.82;;;7.30;99.90;;;;;;20429297;29;20099;-42
2024/03/31 09:37:16;;;;;;;87.00;7.93;;;7.30;99.90;;;;;;20423047;29;20044;-47
2024/03/31 09:47:48;;;;;;;65.35;7.90;;;7.20;99.90;;;;;;20420252;29;20027;-41
2024/03/31 09:57:53;;;;;;;91.00;8.63;;;7.20;99.90;;;;;;20419690;29;20180;-43
2024/03/31 10:07:57;;;;;;;49.05;7.13;;;7.20;99.90;;;;;;20419298;29;20376;-43
2024/03/31 10:17:59;;;;;;;52.55;8.77;;;7.30;99.90;;;;;;20417800;29;20036;-40
2024/03/31 10:28:03;;;;;;;67.15;8.07;;;7.80;99.90;;;;;;20474869;29;20122;-45
2024/03/31 10:38:05;;;;;;;56.58;6.68;;;8.00;99.90;;;;;;20498569;29;20035;-41
2024/03/31 10:48:07;;;;;;;347.85;21.33;;;7.80;99.90;;;;;;20436767;29;20035;-40
2024/03/31 10:58:14;;;;;;;305.02;17.85;;;7.60;99.90;;;;;;20504018;29;20083;-40
2024/03/31 11:08:18;;;;;;;948.03;40.38;;;7.70;99.90;;;;;;20483144;29;20036;-43
2024/03/31 11:18:19;;;;;;;277.33;13.52;;;7.80;99.90;;;;;;20474877;29;20094;-41
2024/03/31 11:28:23;;;;;;;961.38;38.40;;;7.90;99.90;;;;;;20462443;29;20047;-40
2024/03/31 11:38:25;;;;;;;497.67;24.02;;;7.90;99.90;;;;;;20433158;29;20039;-40
2024/03/31 11:48:30;;;;;;;477.70;17.52;;;7.70;99.90;;;;;;20395636;29;20055;-44
2024/03/31 11:58:36;;;;;;;954.58;36.10;;;7.70;99.90;;;;;;20431041;29;20032;-45
2024/03/31 12:08:38;;;;;;;766.38;32.45;;;7.70;99.90;;;;;;20432170;29;20040;-40
2024/03/31 12:18:40;;;;;;;184.60;11.05;;;7.60;99.90;;;;;;20417057;29;20166;-41
2024/03/31 12:28:45;;;;;;;30.65;5.32;;;7.70;99.90;;;;;;20428015;29;20052;-42
2024/03/31 12:38:49;;;;;;;30.05;3.75;;;9.00;99.90;;;;;;20461946;29;20106;-44
2024/03/31 12:48:52;;;;;;;24.83;3.65;;;9.50;99.90;;;;;;20507049;29;20093;-41
2024/03/31 12:58:53;;;;;;;24.75;2.80;;;10.00;99.90;;;;;;20462847;29;20094;-43
2024/03/31 13:08:55;;;;;;;19.38;3.20;;;10.40;99.90;;;;;;20422938;29;20530;-43
2024/03/31 13:18:57;;;;;;;24.50;3.38;;;10.40;99.90;;;;;;20421641;29;20036;-41
2024/03/31 13:28:59;;;;;;;26.95;3.50;;;10.00;99.90;;;;;;20423637;29;20044;-40
2024/03/31 13:39:02;;;;;;;22.80;3.50;;;9.70;99.90;;;;;;20455012;29;20035;-44
2024/03/31 13:49:03;;;;;;;22.60;2.90;;;9.40;99.90;;;;;;20502507;29;20043;-46
2024/03/31 13:59:05;;;;;;;28.95;3.28;;;9.50;99.90;;;;;;20484485;29;20043;-45
2024/03/31 14:09:11;;;;;;;26.80;3.47;;;10.00;99.90;;;;;;20405619;29;20177;-41
2024/03/31 14:19:13;;;;;;;29.20;3.60;;;10.40;99.90;;;;;;20404803;29;20031;-43
2024/03/31 14:29:14;;;;;;;26.02;3.50;;;10.70;99.90;;;;;;20486066;29;20090;-44
2024/03/31 14:39:16;;;;;;;24.85;3.15;;;10.70;99.90;;;;;;20497909;29;20039;-42
2024/03/31 14:49:18;;;;;;;22.52;3.33;;;10.60;99.90;;;;;;20469817;29;20075;-41
2024/03/31 14:59:20;;;;;;;33.42;4.07;;;10.20;99.90;;;;;;20498405;29;20038;-42
2024/03/31 15:09:22;;;;;;;23.30;3.60;;;10.30;99.90;;;;;;20459939;29;20439;-42
2024/03/31 15:19:24;;;;;;;38.72;4.65;;;10.20;99.90;;;;;;20399901;29;20043;-42
2024/03/31 15:29:25;;;;;;;29.50;4.13;;;10.10;99.90;;;;;;20496380;28;20058;-42
2024/03/31 15:39:27;;;;;;;31.73;4.35;;;9.60;99.90;;;;;;20510681;29;20098;-40
2024/03/31 15:49:30;;;;;;;28.77;3.90;;;9.20;99.90;;;;;;20489160;29;20063;-43
2024/03/31 15:59:32;;;;;;;35.17;5.22;;;9.00;99.90;;;;;;20416288;29;20024;-40
2024/03/31 16:09:34;;;;;;;33.92;4.38;;;9.00;99.90;;;;;;20468065;29;20106;-41
2024/03/31 16:19:36;;;;;;;36.58;4.97;;;8.80;99.90;;;;;;20432937;29;20551;-41
2024/03/31 16:29:40;;;;;;;31.10;4.22;;;8.80;99.90;;;;;;20509239;29;20043;-41
2024/03/31 16:39:42;;;;;;;36.88;4.93;;;8.60;99.90;;;;;;20506957;28;20027;-43
2024/03/31 16:49:44;;;;;;;26.75;3.83;;;8.40;99.90;;;;;;20460620;29;20144;-41
2024/03/31 16:59:46;;;;;;;22.60;2.83;;;8.30;99.90;;;;;;20506492;29;20066;-40
2024/03/31 17:09:48;;;;;;;27.90;3.20;;;8.20;99.90;;;;;;20506138;29;20062;-43
2024/03/31 17:19:50;;;;;;;27.05;3.53;;;8.00;99.90;;;;;;20505425;29;20545;-40
2024/03/31 17:29:52;;;;;;;28.20;4.03;;;7.90;99.90;;;;;;20504125;29;20039;-40
2024/03/31 17:39:54;;;;;;;30.50;3.30;;;7.70;99.90;;;;;;20488743;29;20094;-42
2024/03/31 17:49:55;;;;;;;24.25;3.58;;;7.60;99.90;;;;;;20488010;29;20074;-40
2024/03/31 17:59:57;;;;;;;31.17;3.67;;;7.60;99.90;;;;;;20483532;29;20094;-41
2024/03/31 18:10:03;;;;;;;27.77;3.80;;;7.60;99.90;;;;;;20500561;29;20043;-42
2024/03/31 18:20:06;;;;;;;27.00;3.30;;;7.70;99.90;;;;;;20499896;29;20122;-40
2024/03/31 18:30:08;;;;;;;27.25;3.38;;;7.80;99.90;;;;;;20499591;29;20051;-40
2024/03/31 18:40:12;;;;;;;24.60;3.33;;;7.50;99.90;;;;;;20498773;29;20096;-40
2024/03/31 18:50:15;;;;;;;27.58;3.50;;;7.60;99.90;;;;;;20497176;29;20051;-42
2024/03/31 19:00:17;;;;;;;38.30;3.63;;;7.80;99.90;;;;;;20498853;29;20035;-40
2024/03/31 19:10:20;;;;;;;61.22;17.27;;;7.70;99.90;;;;;;20507380;28;20035;-41
2024/03/31 19:20:22;;;;;;;27.13;5.13;;;7.60;99.90;;;;;;20513018;29;20070;-40
2024/03/31 19:30:24;;;;;;;29.02;4.40;;;7.40;99.90;;;;;;20495680;29;20106;-43
2024/03/31 19:40:27;;;;;;;26.13;5.15;;;7.30;99.90;;;;;;20492382;29;20040;-40
2024/03/31 19:50:29;;;;;;;36.00;5.43;;;7.20;99.90;;;;;;20443966;29;20075;-45
2024/03/31 20:00:32;;;;;;;32.25;5.78;;;7.10;99.90;;;;;;20462482;29;20056;-47
2024/03/31 20:10:34;;;;;;;30.15;4.03;;;7.00;99.90;;;;;;20478468;29;20086;-45
2024/03/31 20:20:46;;;;;;;31.65;4.70;;;6.90;99.90;;;;;;20506752;28;20023;-41
2024/03/31 20:30:58;;;;;;;29.65;3.97;;;6.80;99.90;;;;;;20464459;29;20048;-43
2024/03/31 20:41:01;;;;;;;30.98;3.88;;;6.80;99.90;;;;;;20479863;29;20039;-43
2024/03/31 20:51:10;;;;;;;23.80;2.78;;;6.80;99.90;;;;;;20477894;29;20070;-41
2024/03/31 21:01:15;;;;;;;22.60;2.92;;;6.90;99.90;;;;;;20506393;29;20031;-44
2024/03/31 21:11:22;;;;;;;18.88;2.78;;;6.90;99.90;;;;;;20503270;29;20447;-42
2024/03/31 21:21:27;;;;;;;22.10;2.75;;;6.80;99.90;;;;;;20466804;29;20047;-40
2024/03/31 21:31:29;;;;;;;18.17;2.33;;;6.90;99.90;;;;;;20488397;28;20658;-40
2024/03/31 21:41:32;;;;;;;22.98;2.47;;;7.00;99.90;;;;;;20474586;29;20098;-41
2024/03/31 21:51:34;;;;;;;22.80;3.03;;;7.10;99.90;;;;;;20481355;29;20390;-41
2024/03/31 22:01:36;;;;;;;25.10;3.38;;;7.20;99.90;;;;;;20501786;29;20435;-43
2024/03/31 22:11:38;;;;;;;25.60;3.15;;;7.20;99.90;;;;;;20472634;29;20047;-42
2024/03/31 22:21:41;;;;;;;32.08;4.53;;;7.40;99.90;;;;;;20434663;28;20107;-44
2024/03/31 22:31:43;;;;;;;37.15;4.70;;;7.50;99.90;;;;;;20420822;29;20043;-42
2024/03/31 22:41:45;;;;;;;28.63;4.18;;;7.50;99.90;;;;;;20478537;28;20035;-41
2024/03/31 22:51:47;;;;;;;34.13;4.47;;;7.60;99.90;;;;;;20481512;29;20118;-45
2024/03/31 23:01:50;;;;;;;30.15;4.20;;;7.50;99.90;;;;;;20451852;29;20035;-42
2024/03/31 23:11:51;;;;;;;36.40;4.50;;;7.60;99.90;;;;;;20477314;29;20043;-42
2024/03/31 23:21:53;;;;;;;33.70;4.85;;;7.50;99.90;;;;;;20497114;29;20039;-43
2024/03/31 23:31:55;;;;;;;46.75;4.90;;;7.50;99.90;;;;;;20480844;29;20035;-46
2024/03/31 23:42:01;;;;;;;37.00;5.45;;;7.50;99.90;;;;;;20447983;29;20035;-41
2024/03/31 23:52:03;;;;;;;31.63;4.78;;;7.50;99.90;;;;;;20449750;29;20094;-44
